Aransas Pass, TX (78335)

5:39 PM CDT on September 21, 2014 (GMT -0500)
Gas Lite Village | Change Station
CLOSE
Current Station
Personal Weather Station
Location: Aransas Pass, TX
Elevation: 18 ft
Nearby Weather Stations

Elev 18 ft 27.92 °N, 97.16 °W | Updated 9 seconds ago

Clear
Clear
84.5 °F
Feels Like 94 °F
N
14.3
Wind Variable Wind from ENE
Gusts 14.3 mph

Today
High -- | Low -- °F
--% Chance of Precip.
Yesterday
High -- | Low -- °F
Precip. -- in
7:16 AM 7:26 PM
Waning Crescent, 5% visible
Pressure 29.93 in
Visibility 10.0 miles
Clouds Clear
Heat Index 94 °F
Dew Point 76 °F
Humidity 77%
Rainfall 3.34 in
Snow Depth Not available.
UV 3 out of 12
Pollen 9.70 out of 12
Ozone Good
Flu Activity Not available.
METAR KTFP 212215Z AUTO 08013G19KT 10SM CLR 31/22 A2993 RMK AO2 T03120220

More Conditions Fewer Conditions

Pressure 29.93 in
Visibility 10.0 miles
Clouds Clear
Heat Index 94 °F
Dew Point 76 °F
Humidity 77%
Rainfall 3.34 in
Snow Depth Not available.
UV 3 out of 12
Pollen 9.70 out of 12
Ozone Good
Flu Activity Not available.
METAR KTFP 212215Z AUTO 08013G19KT 10SM CLR 31/22 A2993 RMK AO2 T03120220

More Conditions Fewer Conditions

Nowcast | as of 3:55 PM CDT on September 21, 2014

Isolated to scattered showers will continue moving across portions of south Texas and the middle Texas coastal waters through the late afternoon and early evening. Expect periods of light to occasionally moderate rainfall with this activity. Additional rainfall accumulations will generally remain below a tenth of an inch...with isolated locations receiving near a quarter of an inch under the heavier showers.

×

10-Day Weather Forecast

Almanac

Astronomy

Sep. 21, 2014 Rise Set
Actual Time 7:16 AM CDT 7:26 PM CDT
Civil Twilight 6:53 AM CDT 7:49 PM CDT
Nautical Twilight 6:25 AM CDT 8:16 PM CDT
Astronomical Twilight 5:58 AM CDT 8:44 PM CDT
Moon 5:01 AM CDT 5:55 PM CDT
Length of Visible Light 12h 56m
Length of Day
12h 09m
Tomorrow will be 1m 39s shorter.
Waning Crescent, 5% of the Moon is Illuminated
Today
Waning Crescent
Sep 24
New
Oct 1
First Quarter
Oct 8
Full
Oct 15
Last Quarter

Today's Extremes

State Highs State Lows

Community

WunderPhotos

Upload Photos

1,755,280 photos uploaded!

WunderBlogs® & News

Nearby

Air Quality

  Air Quality AQ Index Pollutant
Yesterday Good
OZONE
Current Good
OZONE
Sunday Good
OZONE
Sunday Good
PM10
Monday Moderate
OZONE
Monday Good
PM10
Tuesday Good
OZONE
Tuesday Good
PM10

Snow Depth

Station Depth Elevation
No new snow has been reported.

Earthquake Activity

City Distance Mag. Time & Date
No recent earthquake activity has been reported nearby.
Minimum magnitude displayed is 2.5.

Coastal Water Temperatures

Place Temperature
Rockport, TX 84.9 °F
Seadrift, TX 84.9 °F
Port Aransas, TX 84.9 °F

Nearby Weather Stations